createdAt,value
2018-08-16T00:00:34.189Z,23.31
2018-08-16T00:01:34.076Z,23.31
2018-08-16T00:02:34.010Z,23.31
2018-08-16T00:03:33.982Z,23.31
2018-08-16T00:04:34.089Z,23.3
2018-08-16T00:05:33.919Z,23.3
2018-08-16T00:06:34.018Z,23.3
2018-08-16T00:07:33.964Z,23.32
2018-08-16T00:08:34.414Z,23.31
2018-08-16T00:09:34.129Z,23.29
2018-08-16T00:10:33.955Z,23.31
2018-08-16T00:11:33.997Z,23.3
2018-08-16T00:12:34.149Z,23.29
2018-08-16T00:13:33.982Z,23.31
2018-08-16T00:14:34.193Z,23.3
2018-08-16T00:15:34.005Z,23.3
2018-08-16T00:16:33.880Z,23.31
2018-08-16T00:17:34.045Z,23.31
2018-08-16T00:18:33.959Z,23.3
2018-08-16T00:19:34.090Z,23.32
2018-08-16T00:20:34.078Z,23.31
2018-08-16T00:21:33.952Z,23.3
2018-08-16T00:22:34.107Z,23.29
2018-08-16T00:23:34.223Z,23.3
2018-08-16T00:24:34.131Z,23.31
2018-08-16T00:25:34.008Z,23.31
2018-08-16T00:26:34.001Z,23.31
2018-08-16T00:27:34.086Z,23.3
2018-08-16T00:28:33.959Z,23.29
2018-08-16T00:29:34.143Z,23.29
2018-08-16T00:30:34.109Z,23.31
2018-08-16T00:31:34.126Z,23.29
2018-08-16T00:32:34.110Z,23.3
2018-08-16T00:33:34.116Z,23.3
2018-08-16T00:34:33.863Z,23.29
2018-08-16T00:35:33.875Z,23.29
2018-08-16T00:36:34.082Z,23.3
2018-08-16T00:37:34.141Z,23.29
2018-08-16T00:38:34.119Z,23.3
2018-08-16T00:39:33.986Z,23.3
2018-08-16T00:40:33.947Z,23.29
2018-08-16T00:41:34.057Z,23.28
2018-08-16T00:42:34.006Z,23.29
2018-08-16T00:43:33.842Z,23.29
2018-08-16T00:44:33.984Z,23.29
2018-08-16T00:45:34.001Z,23.29
2018-08-16T00:46:34.131Z,23.3
2018-08-16T00:47:33.989Z,23.28
2018-08-16T00:48:33.981Z,23.29
2018-08-16T00:49:34.194Z,23.28
2018-08-16T00:50:33.998Z,23.28
2018-08-16T00:51:33.923Z,23.29
2018-08-16T00:52:33.883Z,23.29
2018-08-16T00:53:34.137Z,23.28
2018-08-16T00:54:34.079Z,23.28
2018-08-16T00:55:33.955Z,23.29
2018-08-16T00:56:34.175Z,23.29
2018-08-16T00:57:34.000Z,23.28
2018-08-16T00:58:33.951Z,23.28
2018-08-16T00:59:33.992Z,23.26
2018-08-16T01:00:33.988Z,23.27
2018-08-16T01:01:33.821Z,23.28
2018-08-16T01:02:33.962Z,23.28
2018-08-16T01:03:34.193Z,23.27
2018-08-16T01:04:33.905Z,23.28
2018-08-16T01:05:33.930Z,23.28
2018-08-16T01:06:34.030Z,23.28
2018-08-16T01:07:34.033Z,23.27
2018-08-16T01:08:33.900Z,23.28
2018-08-16T01:09:34.071Z,23.29
2018-08-16T01:10:33.773Z,23.28
2018-08-16T01:11:33.836Z,23.28
2018-08-16T01:12:34.108Z,23.26
2018-08-16T01:13:33.912Z,23.27
2018-08-16T01:14:34.015Z,23.25
2018-08-16T01:15:34.199Z,23.26
2018-08-16T01:16:34.029Z,23.27
2018-08-16T01:17:34.076Z,23.27
2018-08-16T01:18:34.165Z,23.26
2018-08-16T01:19:33.888Z,23.27
2018-08-16T01:20:34.037Z,23.27
2018-08-16T01:21:34.085Z,23.27
2018-08-16T01:22:34.082Z,23.25
2018-08-16T01:23:33.905Z,23.26
2018-08-16T01:24:34.129Z,23.26
2018-08-16T01:25:34.089Z,23.27
2018-08-16T01:26:34.103Z,23.26
2018-08-16T01:27:34.288Z,23.26
2018-08-16T01:28:34.048Z,23.26
2018-08-16T01:29:33.965Z,23.27
2018-08-16T01:30:34.239Z,23.27
2018-08-16T01:31:33.985Z,23.25
2018-08-16T01:32:33.981Z,23.26
2018-08-16T01:33:34.107Z,23.26
2018-08-16T01:34:33.923Z,23.26
2018-08-16T01:35:34.323Z,23.27
2018-08-16T01:36:34.041Z,23.27
2018-08-16T01:37:33.905Z,23.27
2018-08-16T01:38:33.857Z,23.26
2018-08-16T01:39:34.106Z,23.26
2018-08-16T01:40:34.095Z,23.26
2018-08-16T01:41:34.025Z,23.24
2018-08-16T01:42:34.053Z,23.25
2018-08-16T01:43:34.720Z,23.26
2018-08-16T01:44:33.995Z,23.26
2018-08-16T01:45:34.117Z,23.25
2018-08-16T01:46:33.959Z,23.24
2018-08-16T01:47:34.135Z,23.25
2018-08-16T01:48:33.933Z,23.24
2018-08-16T01:49:34.348Z,23.26
2018-08-16T01:50:33.966Z,23.26
2018-08-16T01:51:34.131Z,23.26
2018-08-16T01:52:34.278Z,23.26
2018-08-16T01:53:34.100Z,23.24
2018-08-16T01:54:33.987Z,23.25
2018-08-16T01:55:33.873Z,23.26
2018-08-16T01:56:34.076Z,23.24
2018-08-16T01:57:33.975Z,23.25
2018-08-16T01:58:34.346Z,23.23
2018-08-16T01:59:33.999Z,23.25
2018-08-16T02:00:33.917Z,23.26
2018-08-16T02:01:33.864Z,23.26
2018-08-16T02:02:34.012Z,23.26
2018-08-16T02:03:34.076Z,23.26
2018-08-16T02:04:33.963Z,23.24
2018-08-16T02:05:34.022Z,23.25
2018-08-16T02:06:34.104Z,23.25
2018-08-16T02:07:34.207Z,23.25
2018-08-16T02:08:34.207Z,23.25
2018-08-16T02:09:33.904Z,23.26
2018-08-16T02:10:34.176Z,23.24
2018-08-16T02:11:34.325Z,23.25
2018-08-16T02:12:34.211Z,23.25
2018-08-16T02:13:33.997Z,23.26
2018-08-16T02:14:33.958Z,23.25
2018-08-16T02:15:33.963Z,23.24
2018-08-16T02:16:33.964Z,23.23
2018-08-16T02:17:34.015Z,23.24
2018-08-16T02:18:34.071Z,23.24
2018-08-16T02:19:34.069Z,23.24
2018-08-16T02:20:33.997Z,23.24
2018-08-16T02:21:33.927Z,23.24
2018-08-16T02:22:33.805Z,23.23
2018-08-16T02:23:33.968Z,23.25
2018-08-16T02:24:34.228Z,23.26
2018-08-16T02:25:34.262Z,23.25
2018-08-16T02:26:34.107Z,23.24
2018-08-16T02:27:33.886Z,23.23
2018-08-16T02:28:34.328Z,23.24
2018-08-16T02:29:34.118Z,23.24
2018-08-16T02:30:34.073Z,23.24
2018-08-16T02:31:33.831Z,23.24
2018-08-16T02:32:33.990Z,23.24
2018-08-16T02:33:34.146Z,23.24
2018-08-16T02:34:34.097Z,23.24
2018-08-16T02:35:34.176Z,23.23
2018-08-16T02:36:34.073Z,23.25
2018-08-16T02:37:33.978Z,23.23
2018-08-16T02:38:34.197Z,23.22
2018-08-16T02:39:33.996Z,23.23
2018-08-16T02:40:33.845Z,23.23
2018-08-16T02:41:34.214Z,23.24
2018-08-16T02:42:34.181Z,23.23
2018-08-16T02:43:34.123Z,23.21
2018-08-16T02:44:34.035Z,23.23
2018-08-16T02:45:34.001Z,23.24
2018-08-16T02:46:33.970Z,23.23
2018-08-16T02:47:33.923Z,23.23
2018-08-16T02:48:34.118Z,23.23
2018-08-16T02:49:33.954Z,23.23
2018-08-16T02:50:33.896Z,23.23
2018-08-16T02:51:34.013Z,23.23
2018-08-16T02:52:33.950Z,23.22
2018-08-16T02:53:33.923Z,23.2
2018-08-16T02:54:34.031Z,23.22
2018-08-16T02:55:34.439Z,23.23
2018-08-16T02:56:33.960Z,23.23
2018-08-16T02:57:34.080Z,23.22
2018-08-16T02:58:33.906Z,23.2
2018-08-16T02:59:34.168Z,23.22
2018-08-16T03:00:34.063Z,23.22
2018-08-16T03:01:34.005Z,23.19
2018-08-16T03:02:34.309Z,23.21
2018-08-16T03:03:34.497Z,23.22
2018-08-16T03:04:33.973Z,23.22
2018-08-16T03:05:34.050Z,23.22
2018-08-16T03:06:34.293Z,23.23
2018-08-16T03:07:34.095Z,23.22
2018-08-16T03:08:34.131Z,23.21
2018-08-16T03:09:34.147Z,23.22
2018-08-16T03:10:34.016Z,23.21
2018-08-16T03:11:33.938Z,23.22
2018-08-16T03:12:33.871Z,23.22
2018-08-16T03:13:34.091Z,23.22
2018-08-16T03:14:34.187Z,23.23
2018-08-16T03:15:33.926Z,23.22
2018-08-16T03:16:33.881Z,23.21
2018-08-16T03:17:33.915Z,23.23
2018-08-16T03:18:34.236Z,23.22
2018-08-16T03:19:33.979Z,23.22
2018-08-16T03:20:34.130Z,23.22
2018-08-16T03:21:34.115Z,23.21
2018-08-16T03:22:33.791Z,23.2
2018-08-16T03:23:34.381Z,23.21
2018-08-16T03:24:34.032Z,23.19
2018-08-16T03:25:33.942Z,23.2
2018-08-16T03:26:33.876Z,23.22
2018-08-16T03:27:34.095Z,23.21
2018-08-16T03:28:34.242Z,23.22
2018-08-16T03:29:33.941Z,23.2
2018-08-16T03:30:33.941Z,23.19
2018-08-16T03:31:34.183Z,23.2
2018-08-16T03:32:34.296Z,23.21
2018-08-16T03:33:34.039Z,23.21
2018-08-16T03:34:33.856Z,23.21
2018-08-16T03:35:33.994Z,23.18
2018-08-16T03:36:33.903Z,23.2
2018-08-16T03:37:34.029Z,23.19
2018-08-16T03:38:33.977Z,23.19
2018-08-16T03:39:33.995Z,23.19
2018-08-16T03:40:33.852Z,23.21
2018-08-16T03:41:33.904Z,23.2
2018-08-16T03:42:33.984Z,23.21
2018-08-16T03:43:33.863Z,23.2
2018-08-16T03:44:34.005Z,23.21
2018-08-16T03:45:33.945Z,23.19
2018-08-16T03:46:34.160Z,23.19
2018-08-16T03:47:33.961Z,23.2
2018-08-16T03:48:34.134Z,23.19
2018-08-16T03:49:33.980Z,23.2
2018-08-16T03:50:33.921Z,23.18
2018-08-16T03:51:34.014Z,23.19
2018-08-16T03:52:33.827Z,23.19
2018-08-16T03:53:34.003Z,23.19
2018-08-16T03:54:33.833Z,23.2
2018-08-16T03:55:33.914Z,23.19
2018-08-16T03:56:33.941Z,23.19
2018-08-16T03:57:34.010Z,23.18
2018-08-16T03:58:34.156Z,23.19
2018-08-16T03:59:34.165Z,23.19
2018-08-16T04:00:34.002Z,23.21
2018-08-16T04:01:33.879Z,23.19
2018-08-16T04:02:34.107Z,23.18
2018-08-16T04:03:33.840Z,23.19
2018-08-16T04:04:33.923Z,23.17
2018-08-16T04:05:34.226Z,23.19
2018-08-16T04:06:34.017Z,23.17
2018-08-16T04:07:33.871Z,23.16
2018-08-16T04:08:34.008Z,23.19
2018-08-16T04:09:34.187Z,23.2
2018-08-16T04:10:33.978Z,23.19
2018-08-16T04:11:34.064Z,23.2
2018-08-16T04:12:34.101Z,23.19
2018-08-16T04:13:33.961Z,23.18
2018-08-16T04:14:34.103Z,23.17
2018-08-16T04:15:33.999Z,23.18
2018-08-16T04:16:34.040Z,23.17
2018-08-16T04:17:34.104Z,23.17
2018-08-16T04:18:33.957Z,23.16
2018-08-16T04:19:33.947Z,23.17
2018-08-16T04:20:33.949Z,23.16
2018-08-16T04:21:33.790Z,23.18
2018-08-16T04:22:33.931Z,23.17
2018-08-16T04:23:34.239Z,23.18
2018-08-16T04:24:34.060Z,23.2
2018-08-16T04:25:33.976Z,23.18
2018-08-16T04:26:34.002Z,23.19
2018-08-16T04:27:34.063Z,23.17
2018-08-16T04:28:33.860Z,23.18
2018-08-16T04:29:34.001Z,23.19
2018-08-16T04:30:33.833Z,23.19
2018-08-16T04:31:34.109Z,23.18
2018-08-16T04:32:34.008Z,23.17
2018-08-16T04:33:33.821Z,23.18
2018-08-16T04:34:33.985Z,23.18
2018-08-16T04:35:33.964Z,23.18
2018-08-16T04:36:33.922Z,23.17
2018-08-16T04:37:33.921Z,23.16
2018-08-16T04:38:33.853Z,23.17
2018-08-16T04:39:33.877Z,23.15
2018-08-16T04:40:33.960Z,23.17
2018-08-16T04:41:34.060Z,23.16
2018-08-16T04:42:33.795Z,23.17
2018-08-16T04:43:34.011Z,23.18
2018-08-16T04:44:33.950Z,23.17
2018-08-16T04:45:34.166Z,23.17
2018-08-16T04:46:33.993Z,23.15
2018-08-16T04:47:34.054Z,23.16
2018-08-16T04:48:33.895Z,23.18
2018-08-16T04:49:33.844Z,23.18
2018-08-16T04:50:33.842Z,23.17
2018-08-16T04:51:33.913Z,23.16
2018-08-16T04:52:33.920Z,23.16
2018-08-16T04:53:33.881Z,23.14
2018-08-16T04:54:33.964Z,23.16
2018-08-16T04:55:34.023Z,23.16
2018-08-16T04:56:33.960Z,23.16
2018-08-16T04:57:33.759Z,23.14
2018-08-16T04:58:34.042Z,23.15
2018-08-16T04:59:33.963Z,23.17
2018-08-16T05:00:33.872Z,23.16
2018-08-16T05:01:33.960Z,23.15
2018-08-16T05:02:34.052Z,23.15
2018-08-16T05:03:33.894Z,23.17
2018-08-16T05:04:33.876Z,23.16
2018-08-16T05:05:34.056Z,23.17
2018-08-16T05:06:33.830Z,23.17
2018-08-16T05:07:33.984Z,23.16
2018-08-16T05:08:33.859Z,23.17
2018-08-16T05:09:34.037Z,23.15
2018-08-16T05:10:33.872Z,23.14
2018-08-16T05:11:34.257Z,23.16
2018-08-16T05:12:34.052Z,23.16
2018-08-16T05:13:33.884Z,23.16
2018-08-16T05:14:33.903Z,23.15
2018-08-16T05:15:33.888Z,23.16
2018-08-16T05:16:34.213Z,23.16
2018-08-16T05:17:33.940Z,23.17
2018-08-16T05:18:34.018Z,23.17
2018-08-16T05:19:33.962Z,23.15
2018-08-16T05:20:33.943Z,23.15
2018-08-16T05:21:33.913Z,23.15
2018-08-16T05:22:33.846Z,23.14
2018-08-16T05:23:34.078Z,23.14
2018-08-16T05:24:33.843Z,23.15
2018-08-16T05:25:34.007Z,23.15
2018-08-16T05:26:33.846Z,23.14
2018-08-16T05:27:34.025Z,23.14
2018-08-16T05:28:33.991Z,23.14
2018-08-16T05:29:34.028Z,23.16
2018-08-16T05:30:33.893Z,23.16
2018-08-16T05:31:33.937Z,23.16
2018-08-16T05:32:33.884Z,23.16
2018-08-16T05:33:33.760Z,23.15
2018-08-16T05:34:34.012Z,23.17
2018-08-16T05:35:33.826Z,23.15
2018-08-16T05:36:33.919Z,23.12
2018-08-16T05:37:34.062Z,23.13
2018-08-16T05:38:33.925Z,23.16
2018-08-16T05:39:34.008Z,23.15
2018-08-16T05:40:34.075Z,23.15
2018-08-16T05:41:34.014Z,23.14
2018-08-16T05:42:33.897Z,23.15
2018-08-16T05:43:34.279Z,23.15
2018-08-16T05:44:34.131Z,23.15
2018-08-16T05:45:34.032Z,23.14
2018-08-16T05:46:34.296Z,23.15
2018-08-16T05:47:33.960Z,23.15
2018-08-16T05:48:33.893Z,23.13
2018-08-16T05:49:33.778Z,23.13
2018-08-16T05:50:34.158Z,23.13
2018-08-16T05:51:33.847Z,23.14
2018-08-16T05:52:34.033Z,23.13
2018-08-16T05:53:33.917Z,23.14
2018-08-16T05:54:33.834Z,23.16
2018-08-16T05:55:33.980Z,23.15
2018-08-16T05:56:33.889Z,23.15
2018-08-16T05:57:33.987Z,23.13
2018-08-16T05:58:34.071Z,23.14
2018-08-16T05:59:34.239Z,23.13
2018-08-16T06:00:33.785Z,23.15
2018-08-16T06:01:33.871Z,23.13
2018-08-16T06:02:33.922Z,23.13
2018-08-16T06:03:34.092Z,23.14
2018-08-16T06:04:34.096Z,23.15
2018-08-16T06:05:33.912Z,23.13
2018-08-16T06:06:34.060Z,23.12
2018-08-16T06:07:33.999Z,23.13
2018-08-16T06:08:33.936Z,23.15
2018-08-16T06:09:33.805Z,23.12
2018-08-16T06:10:33.827Z,23.14
2018-08-16T06:11:33.949Z,23.06
2018-08-16T06:12:33.942Z,22.92
2018-08-16T06:13:34.089Z,22.85
2018-08-16T06:14:33.811Z,22.73
2018-08-16T06:15:34.062Z,22.6
2018-08-16T06:16:33.840Z,22.56
2018-08-16T06:17:34.060Z,22.51
2018-08-16T06:18:33.904Z,22.45
2018-08-16T06:19:33.953Z,22.43
2018-08-16T06:20:33.796Z,22.42
2018-08-16T06:21:34.059Z,22.41
2018-08-16T06:22:33.927Z,22.42
2018-08-16T06:23:34.074Z,22.43
2018-08-16T06:24:33.893Z,22.35
2018-08-16T06:25:34.080Z,22.33
2018-08-16T06:26:33.868Z,22.31
2018-08-16T06:27:33.980Z,22.28
2018-08-16T06:28:34.017Z,22.27
2018-08-16T06:29:33.767Z,22.31
2018-08-16T06:30:33.844Z,22.25
2018-08-16T06:31:34.005Z,22.25
2018-08-16T06:32:34.078Z,22.25
2018-08-16T06:33:33.978Z,22.24
2018-08-16T06:34:34.154Z,22.26
2018-08-16T06:35:34.215Z,22.23
2018-08-16T06:36:34.093Z,22.18
2018-08-16T06:37:33.889Z,22.22
2018-08-16T06:38:33.770Z,22.21
2018-08-16T06:39:33.893Z,22.21
2018-08-16T06:40:33.955Z,22.23
2018-08-16T06:41:34.115Z,22.18
2018-08-16T06:42:33.983Z,22.25
2018-08-16T06:43:33.981Z,22.2
2018-08-16T06:44:34.023Z,22.19
2018-08-16T06:45:33.992Z,22.18
2018-08-16T06:46:34.170Z,22.24
2018-08-16T06:47:34.209Z,22.24
2018-08-16T06:48:34.163Z,22.25
2018-08-16T06:49:34.030Z,22.27
2018-08-16T06:50:33.872Z,22.23
2018-08-16T06:51:33.870Z,22.22
2018-08-16T06:52:34.207Z,22.23
2018-08-16T06:53:34.088Z,22.26
2018-08-16T06:54:34.028Z,22.25
2018-08-16T06:55:33.919Z,22.26
2018-08-16T06:56:33.838Z,22.25
2018-08-16T06:57:34.165Z,22.28
2018-08-16T06:58:33.861Z,22.28
2018-08-16T06:59:34.148Z,22.27
2018-08-16T07:00:34.038Z,22.29
2018-08-16T07:01:33.824Z,22.29
2018-08-16T07:02:33.898Z,22.29
2018-08-16T07:03:34.003Z,22.3
2018-08-16T07:04:33.855Z,22.31
2018-08-16T07:05:33.895Z,22.29
2018-08-16T07:06:34.055Z,22.3
2018-08-16T07:07:33.969Z,22.3
2018-08-16T07:08:34.051Z,22.31
2018-08-16T07:09:33.966Z,22.35
2018-08-16T07:10:34.015Z,22.36
2018-08-16T07:11:34.118Z,22.31
2018-08-16T07:12:34.029Z,22.38
2018-08-16T07:13:34.051Z,22.43
2018-08-16T07:14:33.838Z,22.44
2018-08-16T07:15:34.146Z,22.46
2018-08-16T07:16:34.070Z,22.52
2018-08-16T07:17:34.051Z,22.51
2018-08-16T07:18:34.071Z,22.54
2018-08-16T07:19:33.895Z,22.56
2018-08-16T07:20:34.061Z,22.57
2018-08-16T07:21:33.876Z,22.6
2018-08-16T07:22:34.115Z,22.61
2018-08-16T07:23:33.947Z,22.63
2018-08-16T07:24:33.911Z,22.62
2018-08-16T07:25:34.033Z,22.64
2018-08-16T07:26:33.915Z,22.65
2018-08-16T07:27:33.903Z,22.66
2018-08-16T07:28:33.871Z,22.68
2018-08-16T07:29:33.803Z,22.68
2018-08-16T07:30:33.785Z,22.7
2018-08-16T07:31:33.956Z,22.69
2018-08-16T07:32:33.814Z,22.67
2018-08-16T07:33:33.975Z,22.71
2018-08-16T07:34:33.825Z,22.73
2018-08-16T07:35:34.034Z,22.76
2018-08-16T07:36:33.883Z,22.79
2018-08-16T07:37:33.879Z,22.81
2018-08-16T07:38:33.992Z,22.82
2018-08-16T07:39:33.923Z,22.85
2018-08-16T07:40:33.814Z,22.85
2018-08-16T07:41:33.859Z,22.87
2018-08-16T07:42:34.040Z,22.88
2018-08-16T07:43:33.899Z,22.91
2018-08-16T07:44:33.912Z,22.89
2018-08-16T07:45:34.046Z,22.9
2018-08-16T07:46:34.200Z,22.92
2018-08-16T07:47:33.987Z,22.94
2018-08-16T07:48:33.974Z,22.94
2018-08-16T07:49:34.297Z,22.95
2018-08-16T07:50:33.866Z,22.94
2018-08-16T07:51:34.179Z,22.97
2018-08-16T07:52:33.897Z,22.97
2018-08-16T07:53:33.916Z,22.96
2018-08-16T07:54:34.052Z,23.03
2018-08-16T07:55:33.833Z,22.96
2018-08-16T07:56:33.791Z,22.96
2018-08-16T07:57:34.159Z,22.95
2018-08-16T07:58:33.893Z,22.95
2018-08-16T07:59:33.885Z,22.94
2018-08-16T08:00:33.983Z,22.95
2018-08-16T08:01:34.140Z,22.94
2018-08-16T08:02:33.999Z,22.94
2018-08-16T08:03:33.846Z,22.94
2018-08-16T08:04:33.849Z,22.93
2018-08-16T08:05:33.922Z,22.93
2018-08-16T08:06:33.841Z,22.93
2018-08-16T08:07:33.985Z,22.94
2018-08-16T08:08:33.905Z,22.92
2018-08-16T08:09:34.097Z,22.93
2018-08-16T08:10:33.934Z,22.93
2018-08-16T08:11:33.850Z,22.92
2018-08-16T08:12:34.068Z,22.92
2018-08-16T08:13:33.997Z,22.93
2018-08-16T08:14:34.136Z,22.92
2018-08-16T08:15:34.156Z,22.92
2018-08-16T08:16:34.238Z,22.93
2018-08-16T08:17:33.938Z,22.92
2018-08-16T08:18:34.069Z,22.92
2018-08-16T08:19:34.129Z,22.92
2018-08-16T08:20:33.931Z,22.92
2018-08-16T08:21:33.930Z,22.92
2018-08-16T08:22:33.801Z,22.92
2018-08-16T08:23:33.974Z,22.92
2018-08-16T08:24:33.915Z,22.92
2018-08-16T08:25:34.037Z,22.93
2018-08-16T08:26:33.779Z,22.93
2018-08-16T08:27:33.855Z,22.93
2018-08-16T08:28:34.172Z,22.93
2018-08-16T08:29:33.850Z,22.93
2018-08-16T08:30:33.959Z,22.93
2018-08-16T08:31:33.985Z,22.93
2018-08-16T08:32:33.947Z,22.93
2018-08-16T08:33:33.888Z,22.92
2018-08-16T08:34:34.077Z,22.92
2018-08-16T08:35:33.785Z,22.93
2018-08-16T08:36:33.859Z,22.92
2018-08-16T08:37:33.810Z,22.92
2018-08-16T08:38:34.063Z,22.93
2018-08-16T08:39:34.115Z,22.92
2018-08-16T08:40:33.933Z,22.93
2018-08-16T08:41:33.968Z,22.93
2018-08-16T08:42:33.867Z,22.92
2018-08-16T08:43:34.161Z,22.92
2018-08-16T08:44:33.831Z,22.92
2018-08-16T08:45:34.177Z,22.93
2018-08-16T08:46:33.909Z,22.92
2018-08-16T08:47:33.949Z,22.93
2018-08-16T08:48:33.804Z,22.93
2018-08-16T08:49:33.946Z,22.92
2018-08-16T08:50:33.949Z,22.92
2018-08-16T08:51:33.823Z,22.93
2018-08-16T08:52:33.977Z,22.92
2018-08-16T08:53:33.930Z,22.92
2018-08-16T08:54:33.969Z,22.93
2018-08-16T08:55:34.057Z,22.93
2018-08-16T08:56:33.935Z,22.92
2018-08-16T08:57:34.036Z,22.92
2018-08-16T08:58:33.742Z,22.92
2018-08-16T08:59:34.025Z,22.92
2018-08-16T09:00:33.793Z,22.92
2018-08-16T09:01:34.035Z,22.93
2018-08-16T09:02:33.858Z,22.92
2018-08-16T09:03:33.996Z,22.93
2018-08-16T09:04:33.862Z,22.93
2018-08-16T09:05:33.868Z,22.92
2018-08-16T09:06:34.043Z,22.92
2018-08-16T09:07:33.886Z,22.92
2018-08-16T09:08:33.836Z,22.92
2018-08-16T09:09:33.732Z,22.93
2018-08-16T09:10:33.896Z,22.93
2018-08-16T09:11:33.749Z,22.92
2018-08-16T09:12:34.138Z,22.93
2018-08-16T09:13:34.076Z,22.92
2018-08-16T09:14:34.065Z,22.92
2018-08-16T09:15:33.980Z,22.93
2018-08-16T09:16:34.072Z,22.93
2018-08-16T09:17:34.019Z,22.93
2018-08-16T09:18:33.896Z,22.92
2018-08-16T09:19:33.933Z,22.92
2018-08-16T09:20:33.728Z,22.92
2018-08-16T09:21:33.996Z,22.92
2018-08-16T09:22:33.797Z,22.93
2018-08-16T09:23:33.829Z,22.92
2018-08-16T09:24:34.105Z,22.93
2018-08-16T09:25:33.972Z,22.93
2018-08-16T09:26:34.026Z,22.93
2018-08-16T09:27:34.015Z,22.93
2018-08-16T09:28:34.149Z,22.92
2018-08-16T09:29:33.931Z,22.93
2018-08-16T09:30:35.557Z,22.93
2018-08-16T09:31:33.893Z,22.93
2018-08-16T09:32:34.000Z,22.92
2018-08-16T09:33:33.855Z,22.93
2018-08-16T09:34:33.961Z,22.93
2018-08-16T09:35:33.997Z,22.92
2018-08-16T09:36:33.892Z,22.92
2018-08-16T09:37:33.912Z,22.93
2018-08-16T09:38:33.755Z,22.92
2018-08-16T09:39:34.238Z,22.92
2018-08-16T09:40:34.070Z,22.92
2018-08-16T09:41:34.000Z,22.92
2018-08-16T09:42:34.153Z,22.93
2018-08-16T09:43:33.845Z,22.93
2018-08-16T09:44:34.113Z,22.92
2018-08-16T09:45:33.926Z,22.93
2018-08-16T09:46:34.073Z,22.93
2018-08-16T09:47:33.810Z,22.93
2018-08-16T09:48:34.093Z,22.94
2018-08-16T09:49:33.912Z,22.93
2018-08-16T09:50:33.734Z,22.93
2018-08-16T09:51:34.109Z,22.94
2018-08-16T09:52:33.958Z,22.94
2018-08-16T09:53:33.895Z,22.94
2018-08-16T09:54:33.902Z,22.93
2018-08-16T09:55:34.005Z,22.93
2018-08-16T09:56:33.931Z,22.95
2018-08-16T09:57:34.000Z,22.98
2018-08-16T09:58:33.802Z,22.97
2018-08-16T09:59:33.980Z,23
2018-08-16T10:00:33.940Z,23.01
2018-08-16T10:01:33.889Z,23.03
2018-08-16T10:02:34.033Z,23.04
2018-08-16T10:03:33.983Z,23.05
2018-08-16T10:04:33.966Z,23.09
2018-08-16T10:05:33.770Z,23.08
2018-08-16T10:06:33.877Z,23.12
2018-08-16T10:07:34.056Z,23.12
2018-08-16T10:08:33.869Z,23.15
2018-08-16T10:09:34.107Z,23.16
2018-08-16T10:10:34.097Z,23.17
2018-08-16T10:11:33.943Z,23.19
2018-08-16T10:12:34.012Z,23.2
2018-08-16T10:13:34.019Z,23.21
2018-08-16T10:14:33.820Z,23.21
2018-08-16T10:15:33.911Z,23.23
2018-08-16T10:16:34.030Z,23.23
2018-08-16T10:17:34.004Z,23.23
2018-08-16T10:18:33.828Z,23.27
2018-08-16T10:19:33.891Z,23.23
2018-08-16T10:20:34.077Z,23.25
2018-08-16T10:21:34.032Z,23.25
2018-08-16T10:22:34.068Z,23.26
2018-08-16T10:23:33.769Z,23.28
2018-08-16T10:24:33.975Z,23.28
2018-08-16T10:25:34.548Z,23.29
2018-08-16T10:26:33.900Z,23.28
2018-08-16T10:27:33.951Z,23.3
2018-08-16T10:28:34.083Z,23.3
2018-08-16T10:29:34.052Z,23.31
2018-08-16T10:30:34.076Z,23.32
2018-08-16T10:31:33.974Z,23.32
2018-08-16T10:32:33.673Z,23.32
2018-08-16T10:33:34.036Z,23.34
2018-08-16T10:34:34.071Z,23.33
2018-08-16T10:35:33.967Z,23.33
2018-08-16T10:36:33.875Z,23.35
2018-08-16T10:37:34.092Z,23.35
2018-08-16T10:38:33.975Z,23.35
2018-08-16T10:39:33.909Z,23.36
2018-08-16T10:40:33.956Z,23.35
2018-08-16T10:41:33.903Z,23.37
2018-08-16T10:42:34.005Z,23.37
2018-08-16T10:43:34.022Z,23.39
2018-08-16T10:44:33.962Z,23.37
2018-08-16T10:45:33.844Z,23.38
2018-08-16T10:46:33.993Z,23.37
2018-08-16T10:47:34.079Z,23.39
2018-08-16T10:48:33.970Z,23.4
2018-08-16T10:49:34.006Z,23.4
2018-08-16T10:50:33.818Z,23.41
2018-08-16T10:51:33.798Z,23.42
2018-08-16T10:52:33.891Z,23.44
2018-08-16T10:53:33.775Z,23.43
2018-08-16T10:54:33.815Z,23.42
2018-08-16T10:55:33.957Z,23.42
2018-08-16T10:56:34.002Z,23.43
2018-08-16T10:57:34.040Z,23.43
2018-08-16T10:58:34.082Z,23.44
2018-08-16T10:59:35.132Z,23.43
2018-08-16T11:00:33.894Z,23.44
2018-08-16T11:01:33.895Z,23.44
2018-08-16T11:02:33.940Z,23.45
2018-08-16T11:03:33.905Z,23.44
2018-08-16T11:04:34.018Z,23.46
2018-08-16T11:05:33.984Z,23.45
2018-08-16T11:06:33.726Z,23.45
2018-08-16T11:07:33.828Z,23.48
2018-08-16T11:08:33.783Z,23.49
2018-08-16T11:09:33.930Z,23.5
2018-08-16T11:10:33.730Z,23.5
2018-08-16T11:11:33.921Z,23.5
2018-08-16T11:12:33.779Z,23.49
2018-08-16T11:13:33.803Z,23.52
2018-08-16T11:14:34.026Z,23.49
2018-08-16T11:15:33.905Z,23.5
2018-08-16T11:16:33.748Z,23.49
2018-08-16T11:17:33.838Z,23.51
2018-08-16T11:18:33.811Z,23.51
2018-08-16T11:19:33.911Z,23.5
2018-08-16T11:20:33.964Z,23.5
2018-08-16T11:21:33.868Z,23.53
2018-08-16T11:22:34.072Z,23.53
2018-08-16T11:23:34.174Z,23.51
2018-08-16T11:24:33.861Z,23.52
2018-08-16T11:25:33.892Z,23.51
2018-08-16T11:26:33.897Z,23.53
2018-08-16T11:27:33.830Z,23.53
2018-08-16T11:28:33.926Z,23.53
2018-08-16T11:29:33.869Z,23.51
2018-08-16T11:30:33.859Z,23.52
2018-08-16T11:31:33.877Z,23.52
2018-08-16T11:32:33.809Z,23.53
2018-08-16T11:33:33.860Z,23.5
2018-08-16T11:34:33.741Z,23.5
2018-08-16T11:35:33.750Z,23.48
2018-08-16T11:36:33.774Z,23.48
2018-08-16T11:37:33.917Z,23.46
2018-08-16T11:38:33.779Z,23.48
2018-08-16T11:39:33.901Z,23.47
2018-08-16T11:40:33.785Z,23.47
2018-08-16T11:41:33.910Z,23.46
2018-08-16T11:42:33.914Z,23.46
2018-08-16T11:43:33.968Z,23.45
2018-08-16T11:44:33.684Z,23.46
2018-08-16T11:45:33.994Z,23.45
2018-08-16T11:46:34.094Z,23.44
2018-08-16T11:47:34.050Z,23.44
2018-08-16T11:48:33.776Z,23.43
2018-08-16T11:49:33.958Z,23.43
2018-08-16T11:50:34.065Z,23.42
2018-08-16T11:51:33.969Z,23.42
2018-08-16T11:52:34.011Z,23.41
2018-08-16T11:53:33.833Z,23.41
2018-08-16T11:54:34.089Z,23.41
2018-08-16T11:55:33.826Z,23.43
2018-08-16T11:56:34.023Z,23.4
2018-08-16T11:57:33.844Z,23.41
2018-08-16T11:58:33.890Z,23.43
2018-08-16T11:59:34.024Z,23.42
2018-08-16T12:00:34.251Z,23.43
2018-08-16T12:01:33.836Z,23.45
2018-08-16T12:02:33.820Z,23.45
2018-08-16T12:03:33.796Z,23.47
2018-08-16T12:04:33.765Z,23.46
2018-08-16T12:05:33.951Z,23.44
2018-08-16T12:06:33.773Z,23.43
2018-08-16T12:07:33.835Z,23.45
2018-08-16T12:08:33.914Z,23.43
2018-08-16T12:09:34.037Z,23.42
2018-08-16T12:10:33.782Z,23.43
2018-08-16T12:11:33.871Z,23.42
2018-08-16T12:12:33.903Z,23.43
2018-08-16T12:13:33.918Z,23.43
2018-08-16T12:14:34.284Z,23.42
2018-08-16T12:15:33.834Z,23.42
2018-08-16T12:16:33.853Z,23.41
2018-08-16T12:17:33.986Z,23.38
2018-08-16T12:18:33.808Z,23.4
2018-08-16T12:19:33.917Z,23.42
2018-08-16T12:20:33.805Z,23.44
2018-08-16T12:21:33.836Z,23.44
2018-08-16T12:22:33.837Z,23.47
2018-08-16T12:23:33.732Z,23.46
2018-08-16T12:24:33.748Z,23.47
2018-08-16T12:25:34.050Z,23.49
2018-08-16T12:26:33.933Z,23.48
2018-08-16T12:27:33.899Z,23.5
2018-08-16T12:28:33.879Z,23.47
2018-08-16T12:29:34.082Z,23.45
2018-08-16T12:30:34.014Z,23.46
2018-08-16T12:31:33.743Z,23.44
2018-08-16T12:32:34.040Z,23.43
2018-08-16T12:33:33.707Z,23.43
2018-08-16T12:34:33.806Z,23.42
2018-08-16T12:35:33.970Z,23.42
2018-08-16T12:36:33.939Z,23.43
2018-08-16T12:37:33.880Z,23.44
2018-08-16T12:38:33.863Z,23.48
2018-08-16T12:39:34.012Z,23.48
2018-08-16T12:40:34.014Z,23.5
2018-08-16T12:41:34.119Z,23.5
2018-08-16T12:42:33.731Z,23.53
2018-08-16T12:43:34.019Z,23.52
2018-08-16T12:44:33.959Z,23.51
2018-08-16T12:45:33.824Z,23.55
2018-08-16T12:46:33.851Z,23.56
2018-08-16T12:47:34.001Z,23.57
2018-08-16T12:48:33.767Z,23.57
2018-08-16T12:49:33.823Z,23.56
2018-08-16T12:50:33.782Z,23.54
2018-08-16T12:51:33.741Z,23.53
2018-08-16T12:52:34.056Z,23.54
2018-08-16T12:53:33.932Z,23.5
2018-08-16T12:54:33.834Z,23.52